x

Jonesport, Me - 20 Nm Se Of Jonesport, Me (44027) Wave Buoy

6:50am - Fri 6th Mar 2015 All times are AST. -4 hours from GMT.

  • Sig Wave height 4.3ft
  • Peak Period 9s
  • Average Period 5s
  • Wind
    20mph, 27mph gusts
  • Air Temp 13°f
  • Sea Pressure 1028.7mb
  • Jonesport, Me - 20 Nm Se Of Jonesport, Me
  • Jonesport, Me - 20 Nm Se Of Jonesport, Me

More Historic Weather Station data

Upgrade to MSW Pro to gain access to the past 30 days of data for over 8000 Wavebouys and Weather Stations around the globe.

Join Pro

Comparision Forecast

View Surf forecast
   
Fri 03/06 6:50am 4.5ft 9s 5s 20 27 mph 1028.7mb 13f
5:50am 4.5ft 5s 4s 20 29 mph 1028.1mb 14f
4:50am 5ft 5s 4s 27 34 mph 1027mb 14f
3:50am 5ft 5s 4s 29 36 mph 1026mb 14f
2:50am 5.5ft 5s 4s 31 40 mph 1025mb 15f
1:50am 5ft 5s 4s 31 36 mph 1024.1mb 16f
12:50am 5ft 5s 5s 29 34 mph 1023.5mb 17f
Thu 03/05 11:50pm 4.5ft 4s 5s 27 36 mph 1022.1mb 18f
10:50pm 5ft 9s 5s 27 31 mph 1021.8mb 19f
9:50pm 5ft 9s 5s 27 31 mph 1021mb 20f
8:50pm 5ft 9s 5s 25 31 mph 1019.7mb 20f
7:50pm 5ft 10s 5s 25 31 mph 1019.4mb 20f
6:50pm 6ft 11s 5s 25 31 mph 1018.6mb 20f
5:50pm 6ft 11s 5s 29 36 mph 1017.5mb 21f
4:50pm 6ft 11s 6s 25 34 mph 1017mb 23f
3:50pm 6ft 11s 5s 25 29 mph 1015.9mb 24f
2:50pm 6.5ft 11s 5s 27 31 mph 1014.7mb 25f
1:50pm 7ft 11s 6s 29 38 mph 1014.3mb 26f
12:50pm 7ft 11s 6s 29 34 mph 1014.8mb 26f
11:50am 8ft 11s 6s 27 36 mph 1014.5mb 26f
10:50am 7.5ft 11s 6s 27 34 mph 1013.7mb 27f
9:50am 8ft 11s 7s 29 36 mph 1012.7mb 28f
8:50am 9ft 11s 7s 27 34 mph 1011.8mb 32f
7:50am 8.5ft 11s 7s 27 31 mph 1010.7mb 34f
6:50am 7.5ft 11s 7s 25 31 mph 1009.8mb 35f
5:50am 7.5ft 10s 7s 25 31 mph 1008.7mb 36f
4:50am 6.5ft 11s 7s 20 27 mph 1008.1mb 37f
3:50am 7ft 11s 7s 20 25 mph 1007.3mb 37f
2:50am 6.5ft 10s 7s 9 11 mph 1007mb 37f
1:50am 7ft 10s 7s 11 16 mph 1006.9mb 37f
12:50am 7ft 10s 7s 9 11 mph 1006.1mb 38f
Wed 03/04 11:50pm 7ft 8s 6s 18 22 mph 1004.8mb 40f
10:50pm 7.5ft 9s 6s 18 22 mph 1006.3mb 40f
9:50pm 7ft 9s 6s 18 20 mph 1005.7mb 39f
8:50pm 8ft 10s 6s 18 22 mph 1005.8mb 39f
7:50pm 9ft 9s 7s 20 22 mph 1005.3mb 39f
6:50pm 7ft 8s 6s 20 25 mph 1005.7mb 38f
5:50pm 6.5ft 8s 6s 25 27 mph 1004.6mb 38f
4:50pm 7.5ft 8s 7s 18 22 mph 1004.2mb 38f
3:50pm 7ft 9s 6s 18 22 mph 1004.6mb 38f
2:50pm 8ft 9s 7s 22 25 mph 1004mb 38f
1:50pm 7.5ft 9s 7s 22 27 mph 1003.8mb 37f
12:50pm 8ft 10s 6s 22 29 mph 1003mb 38f
11:50am 8.5ft 9s 6s 25 27 mph 1002.8mb 37f
10:50am 8ft 9s 6s 25 29 mph 1002.5mb 37f
9:50am 9.5ft 8s 6s 27 29 mph 1002.5mb 37f
8:50am 9ft 8s 6s 27 31 mph 1001.3mb 37f
7:50am 11ft 8s 6s 27 31 mph 1000.1mb 38f
6:50am 8.5ft 8s 6s 20 25 mph 1000mb 38f
5:50am 11ft 8s 6s 27 31 mph 1001.7mb 37f
4:50am 9.5ft 7s 6s 31 36 mph 1003mb 35f
3:50am 10ft 7s 6s 36 40 mph 1005.4mb 35f
2:50am 9ft 7s 6s 36 45 mph 1007.6mb 33f
1:50am 9ft 6s 5s 34 43 mph 1010.5mb 31f
12:50am 6ft 6s 5s 36 45 mph 1012.4mb 31f
Tue 03/03 11:50pm 4ft 5s 4s 34 40 mph 1015.1mb 31f
10:50pm 3ft 10s 4s 27 31 mph 1017.2mb 30f
9:50pm 2.5ft 10s 4s 25 29 mph 1018.8mb 28f
8:50pm 2.5ft 11s 4s 20 25 mph 1020.5mb 27f
7:50pm 2.5ft 10s 4s 13 18 mph 1021.8mb 26f
6:50pm 2.5ft 10s 5s 11 18 mph 1022.4mb 25f
5:50pm 2.5ft 10s 5s 13 18 mph 1023.6mb 25f
4:50pm 2.5ft 10s 5s 13 18 mph 1024.2mb 24f
3:50pm 3ft 10s 5s 13 20 mph 1025mb 23f
2:50pm 3ft 10s 4s 16 20 mph 1025mb 22f
1:50pm 3.5ft 11s 4s 13 20 mph 1025.5mb 20f
12:50pm 3.5ft 5s 4s 13 18 mph 1026mb 19f
11:50am 4ft 6s 4s 16 22 mph 1025.9mb 18f
10:50am 4.5ft 6s 4s 18 25 mph 1025.9mb 17f
9:50am 5ft 5s 5s 25 29 mph 1026.1mb 17f
8:50am 5ft 6s 5s 27 31 mph 1025.5mb 17f
7:50am 5ft 7s 5s 27 31 mph 1024.7mb 17f
6:50am 5ft 5s 5s 29 36 mph 1023.5mb 17f
5:50am 6ft 5s 5s 27 34 mph 1022.8mb 18f
4:50am 7ft 5s 5s 29 34 mph 1021.4mb 18f
3:50am 7ft 5s 5s 34 40 mph 1020.1mb 19f
2:50am 8ft 6s 5s 36 43 mph 1018.7mb 20f
1:50am 7.5ft 6s 5s 38 47 mph 1016.9mb 22f
12:50am 7ft 6s 5s 38 47 mph 1015.2mb 24f
Mon 03/02 11:50pm 7.5ft 5s 5s 38 47 mph 1013.8mb 26f
10:50pm 7ft 6s 5s 38 45 mph 1012.5mb 28f
9:50pm 6.5ft 5s 5s 36 45 mph 1011.8mb 29f